sensor_id;sensor_type;location;lat;lon;timestamp;P1;durP1;ratioP1;P2;durP2;ratioP2
75342;SDS011;63936;51.006;13.764;2023-10-31T00:00:03;14;;;9;;
75342;SDS011;63936;51.006;13.764;2023-10-31T00:02:01;14;;;10;;
75342;SDS011;63936;51.006;13.764;2023-10-31T00:04:02;14;;;9;;
75342;SDS011;63936;51.006;13.764;2023-10-31T00:06:02;12;;;9;;
75342;SDS011;63936;51.006;13.764;2023-10-31T00:08:02;12;;;9;;
75342;SDS011;63936;51.006;13.764;2023-10-31T00:10:02;15;;;10;;
75342;SDS011;63936;51.006;13.764;2023-10-31T00:12:02;15;;;11;;
75342;SDS011;63936;51.006;13.764;2023-10-31T00:14:02;16;;;10;;
75342;SDS011;63936;51.006;13.764;2023-10-31T00:16:02;15;;;10;;
75342;SDS011;63936;51.006;13.764;2023-10-31T00:18:01;18;;;11;;
75342;SDS011;63936;51.006;13.764;2023-10-31T00:20:02;17;;;11;;
75342;SDS011;63936;51.006;13.764;2023-10-31T00:22:02;16;;;10;;
75342;SDS011;63936;51.006;13.764;2023-10-31T00:24:01;17;;;10;;
75342;SDS011;63936;51.006;13.764;2023-10-31T00:26:01;17;;;11;;
75342;SDS011;63936;51.006;13.764;2023-10-31T00:28:01;18;;;11;;
75342;SDS011;63936;51.006;13.764;2023-10-31T00:30:02;17;;;11;;
75342;SDS011;63936;51.006;13.764;2023-10-31T00:32:01;18;;;11;;
75342;SDS011;63936;51.006;13.764;2023-10-31T00:34:01;19;;;12;;
75342;SDS011;63936;51.006;13.764;2023-10-31T00:36:02;18;;;12;;
75342;SDS011;63936;51.006;13.764;2023-10-31T00:38:02;18;;;12;;
75342;SDS011;63936;51.006;13.764;2023-10-31T00:40:02;18;;;12;;
75342;SDS011;63936;51.006;13.764;2023-10-31T00:42:01;17;;;12;;
75342;SDS011;63936;51.006;13.764;2023-10-31T00:44:01;16;;;12;;
75342;SDS011;63936;51.006;13.764;2023-10-31T00:46:03;18;;;12;;
75342;SDS011;63936;51.006;13.764;2023-10-31T00:48:02;19;;;12;;
75342;SDS011;63936;51.006;13.764;2023-10-31T00:50:03;18;;;11;;
75342;SDS011;63936;51.006;13.764;2023-10-31T00:52:01;19;;;11;;
75342;SDS011;63936;51.006;13.764;2023-10-31T00:54:01;17;;;12;;
75342;SDS011;63936;51.006;13.764;2023-10-31T00:56:02;19;;;13;;
75342;SDS011;63936;51.006;13.764;2023-10-31T00:58:02;19;;;12;;
75342;SDS011;63936;51.006;13.764;2023-10-31T01:00:03;18;;;12;;
75342;SDS011;63936;51.006;13.764;2023-10-31T01:02:02;19;;;12;;
75342;SDS011;63936;51.006;13.764;2023-10-31T01:04:02;19;;;12;;
75342;SDS011;63936;51.006;13.764;2023-10-31T01:06:03;18;;;13;;
75342;SDS011;63936;51.006;13.764;2023-10-31T01:08:03;18;;;13;;
75342;SDS011;63936;51.006;13.764;2023-10-31T01:10:07;18;;;13;;
75342;SDS011;63936;51.006;13.764;2023-10-31T01:12:03;18;;;13;;
75342;SDS011;63936;51.006;13.764;2023-10-31T01:14:02;16;;;11;;
75342;SDS011;63936;51.006;13.764;2023-10-31T01:16:03;17;;;11;;
75342;SDS011;63936;51.006;13.764;2023-10-31T01:18:02;18;;;12;;
75342;SDS011;63936;51.006;13.764;2023-10-31T01:20:05;18;;;13;;
75342;SDS011;63936;51.006;13.764;2023-10-31T01:22:02;15;;;12;;
75342;SDS011;63936;51.006;13.764;2023-10-31T01:24:02;17;;;13;;
75342;SDS011;63936;51.006;13.764;2023-10-31T01:26:04;18;;;12;;
75342;SDS011;63936;51.006;13.764;2023-10-31T01:28:06;19;;;13;;
75342;SDS011;63936;51.006;13.764;2023-10-31T01:30:04;17;;;12;;
75342;SDS011;63936;51.006;13.764;2023-10-31T01:32:02;17;;;12;;
75342;SDS011;63936;51.006;13.764;2023-10-31T01:34:04;16;;;11;;
75342;SDS011;63936;51.006;13.764;2023-10-31T01:36:04;16;;;11;;
75342;SDS011;63936;51.006;13.764;2023-10-31T01:38:06;19;;;12;;
75342;SDS011;63936;51.006;13.764;2023-10-31T01:40:07;19;;;13;;
75342;SDS011;63936;51.006;13.764;2023-10-31T01:42:05;17;;;13;;
75342;SDS011;63936;51.006;13.764;2023-10-31T01:44:05;19;;;13;;
75342;SDS011;63936;51.006;13.764;2023-10-31T01:46:07;18;;;12;;
75342;SDS011;63936;51.006;13.764;2023-10-31T01:48:05;18;;;11;;
75342;SDS011;63936;51.006;13.764;2023-10-31T01:50:05;18;;;13;;
75342;SDS011;63936;51.006;13.764;2023-10-31T01:52:10;18;;;13;;
75342;SDS011;63936;51.006;13.764;2023-10-31T01:54:03;18;;;13;;
75342;SDS011;63936;51.006;13.764;2023-10-31T01:56:03;18;;;13;;
75342;SDS011;63936;51.006;13.764;2023-10-31T01:58:02;17;;;13;;
75342;SDS011;63936;51.006;13.764;2023-10-31T02:00:06;17;;;13;;
75342;SDS011;63936;51.006;13.764;2023-10-31T02:02:02;18;;;13;;
75342;SDS011;63936;51.006;13.764;2023-10-31T02:04:01;18;;;12;;
75342;SDS011;63936;51.006;13.764;2023-10-31T02:06:02;17;;;11;;
75342;SDS011;63936;51.006;13.764;2023-10-31T02:08:02;18;;;11;;
75342;SDS011;63936;51.006;13.764;2023-10-31T02:10:05;18;;;12;;
75342;SDS011;63936;51.006;13.764;2023-10-31T02:12:01;17;;;12;;
75342;SDS011;63936;51.006;13.764;2023-10-31T02:14:01;15;;;11;;
75342;SDS011;63936;51.006;13.764;2023-10-31T02:16:02;17;;;11;;
75342;SDS011;63936;51.006;13.764;2023-10-31T02:18:01;17;;;11;;
75342;SDS011;63936;51.006;13.764;2023-10-31T02:20:02;15;;;11;;
75342;SDS011;63936;51.006;13.764;2023-10-31T02:22:03;14;;;10;;
75342;SDS011;63936;51.006;13.764;2023-10-31T02:24:02;15;;;11;;
75342;SDS011;63936;51.006;13.764;2023-10-31T02:26:01;19;;;14;;
75342;SDS011;63936;51.006;13.764;2023-10-31T02:28:04;18;;;14;;
75342;SDS011;63936;51.006;13.764;2023-10-31T02:30:04;16;;;13;;
75342;SDS011;63936;51.006;13.764;2023-10-31T02:32:01;17;;;14;;
75342;SDS011;63936;51.006;13.764;2023-10-31T02:34:05;18;;;15;;
75342;SDS011;63936;51.006;13.764;2023-10-31T02:36:02;21;;;15;;
75342;SDS011;63936;51.006;13.764;2023-10-31T02:38:02;19;;;15;;
75342;SDS011;63936;51.006;13.764;2023-10-31T02:40:03;20;;;15;;
75342;SDS011;63936;51.006;13.764;2023-10-31T02:42:02;18;;;15;;
75342;SDS011;63936;51.006;13.764;2023-10-31T02:44:02;20;;;15;;
75342;SDS011;63936;51.006;13.764;2023-10-31T02:46:01;21;;;16;;
75342;SDS011;63936;51.006;13.764;2023-10-31T02:48:03;21;;;16;;
75342;SDS011;63936;51.006;13.764;2023-10-31T02:50:03;24;;;17;;
75342;SDS011;63936;51.006;13.764;2023-10-31T02:52:02;24;;;17;;
75342;SDS011;63936;51.006;13.764;2023-10-31T02:54:05;23;;;17;;
75342;SDS011;63936;51.006;13.764;2023-10-31T02:56:04;22;;;17;;
75342;SDS011;63936;51.006;13.764;2023-10-31T02:58:03;23;;;17;;
75342;SDS011;63936;51.006;13.764;2023-10-31T03:00:03;22;;;17;;
75342;SDS011;63936;51.006;13.764;2023-10-31T03:02:03;22;;;17;;
75342;SDS011;63936;51.006;13.764;2023-10-31T03:04:02;28;;;20;;
75342;SDS011;63936;51.006;13.764;2023-10-31T03:06:04;28;;;20;;
75342;SDS011;63936;51.006;13.764;2023-10-31T03:08:02;28;;;20;;
75342;SDS011;63936;51.006;13.764;2023-10-31T03:10:03;28;;;21;;
75342;SDS011;63936;51.006;13.764;2023-10-31T03:12:01;26;;;18;;
75342;SDS011;63936;51.006;13.764;2023-10-31T03:14:02;30;;;20;;
75342;SDS011;63936;51.006;13.764;2023-10-31T03:16:02;30;;;20;;
75342;SDS011;63936;51.006;13.764;2023-10-31T03:18:02;29;;;20;;
75342;SDS011;63936;51.006;13.764;2023-10-31T03:20:03;28;;;19;;
75342;SDS011;63936;51.006;13.764;2023-10-31T03:22:02;29;;;19;;
75342;SDS011;63936;51.006;13.764;2023-10-31T03:24:01;28;;;19;;
75342;SDS011;63936;51.006;13.764;2023-10-31T03:26:04;29;;;19;;
75342;SDS011;63936;51.006;13.764;2023-10-31T03:28:02;29;;;19;;
75342;SDS011;63936;51.006;13.764;2023-10-31T03:30:05;29;;;19;;
75342;SDS011;63936;51.006;13.764;2023-10-31T03:32:01;31;;;19;;
75342;SDS011;63936;51.006;13.764;2023-10-31T03:34:01;31;;;19;;
75342;SDS011;63936;51.006;13.764;2023-10-31T03:36:01;35;;;21;;
75342;SDS011;63936;51.006;13.764;2023-10-31T03:38:02;31;;;20;;
75342;SDS011;63936;51.006;13.764;2023-10-31T03:40:04;23;;;16;;
75342;SDS011;63936;51.006;13.764;2023-10-31T03:42:02;24;;;17;;
75342;SDS011;63936;51.006;13.764;2023-10-31T03:44:02;22;;;15;;
75342;SDS011;63936;51.006;13.764;2023-10-31T03:46:02;24;;;16;;
75342;SDS011;63936;51.006;13.764;2023-10-31T03:48:01;20;;;13;;
75342;SDS011;63936;51.006;13.764;2023-10-31T03:50:02;21;;;14;;
75342;SDS011;63936;51.006;13.764;2023-10-31T03:52:01;21;;;14;;
75342;SDS011;63936;51.006;13.764;2023-10-31T03:54:01;21;;;14;;
75342;SDS011;63936;51.006;13.764;2023-10-31T03:56:02;19;;;13;;
75342;SDS011;63936;51.006;13.764;2023-10-31T03:58:02;20;;;13;;
75342;SDS011;63936;51.006;13.764;2023-10-31T04:00:03;16;;;9;;
75342;SDS011;63936;51.006;13.764;2023-10-31T04:02:03;16;;;10;;
75342;SDS011;63936;51.006;13.764;2023-10-31T04:04:02;18;;;11;;
75342;SDS011;63936;51.006;13.764;2023-10-31T04:06:06;17;;;11;;
75342;SDS011;63936;51.006;13.764;2023-10-31T04:08:02;16;;;10;;
75342;SDS011;63936;51.006;13.764;2023-10-31T04:10:03;15;;;10;;
75342;SDS011;63936;51.006;13.764;2023-10-31T04:12:01;15;;;11;;
75342;SDS011;63936;51.006;13.764;2023-10-31T04:14:01;15;;;10;;
75342;SDS011;63936;51.006;13.764;2023-10-31T04:16:01;15;;;10;;
75342;SDS011;63936;51.006;13.764;2023-10-31T04:18:01;15;;;10;;
75342;SDS011;63936;51.006;13.764;2023-10-31T04:20:02;14;;;9;;
75342;SDS011;63936;51.006;13.764;2023-10-31T04:22:01;14;;;9;;
75342;SDS011;63936;51.006;13.764;2023-10-31T04:24:01;15;;;9;;
75342;SDS011;63936;51.006;13.764;2023-10-31T04:26:02;14;;;9;;
75342;SDS011;63936;51.006;13.764;2023-10-31T04:28:02;11;;;7;;
75342;SDS011;63936;51.006;13.764;2023-10-31T04:30:02;13;;;8;;
75342;SDS011;63936;51.006;13.764;2023-10-31T04:32:01;11;;;8;;
75342;SDS011;63936;51.006;13.764;2023-10-31T04:34:01;11;;;7;;
75342;SDS011;63936;51.006;13.764;2023-10-31T04:36:02;12;;;7;;
75342;SDS011;63936;51.006;13.764;2023-10-31T04:38:02;11;;;7;;
75342;SDS011;63936;51.006;13.764;2023-10-31T04:40:02;9;;;6;;
75342;SDS011;63936;51.006;13.764;2023-10-31T04:42:02;9;;;6;;
75342;SDS011;63936;51.006;13.764;2023-10-31T04:44:01;8;;;5;;
75342;SDS011;63936;51.006;13.764;2023-10-31T04:46:01;7;;;4;;
75342;SDS011;63936;51.006;13.764;2023-10-31T04:48:01;8;;;4;;
75342;SDS011;63936;51.006;13.764;2023-10-31T04:50:03;7;;;4;;
75342;SDS011;63936;51.006;13.764;2023-10-31T04:52:01;7;;;4;;
75342;SDS011;63936;51.006;13.764;2023-10-31T04:54:01;7;;;4;;
75342;SDS011;63936;51.006;13.764;2023-10-31T04:56:02;6;;;3;;
75342;SDS011;63936;51.006;13.764;2023-10-31T04:58:02;5;;;3;;
75342;SDS011;63936;51.006;13.764;2023-10-31T05:00:03;6;;;3;;
75342;SDS011;63936;51.006;13.764;2023-10-31T05:02:02;7;;;4;;
75342;SDS011;63936;51.006;13.764;2023-10-31T05:04:02;6;;;3;;
75342;SDS011;63936;51.006;13.764;2023-10-31T05:06:01;5;;;3;;
75342;SDS011;63936;51.006;13.764;2023-10-31T05:08:01;8;;;3;;
75342;SDS011;63936;51.006;13.764;2023-10-31T05:10:03;5;;;3;;
75342;SDS011;63936;51.006;13.764;2023-10-31T05:12:01;6;;;3;;
75342;SDS011;63936;51.006;13.764;2023-10-31T05:14:01;7;;;4;;
75342;SDS011;63936;51.006;13.764;2023-10-31T05:16:01;6;;;3;;
75342;SDS011;63936;51.006;13.764;2023-10-31T05:18:01;6;;;3;;
75342;SDS011;63936;51.006;13.764;2023-10-31T05:20:03;6;;;3;;
75342;SDS011;63936;51.006;13.764;2023-10-31T05:22:01;6;;;2;;
75342;SDS011;63936;51.006;13.764;2023-10-31T05:24:02;6;;;2;;
75342;SDS011;63936;51.006;13.764;2023-10-31T05:26:04;6;;;3;;
75342;SDS011;63936;51.006;13.764;2023-10-31T05:28:02;6;;;3;;
75342;SDS011;63936;51.006;13.764;2023-10-31T05:30:04;5;;;3;;
75342;SDS011;63936;51.006;13.764;2023-10-31T05:32:02;6;;;3;;
75342;SDS011;63936;51.006;13.764;2023-10-31T05:34:01;5;;;2;;
75342;SDS011;63936;51.006;13.764;2023-10-31T05:36:02;5;;;2;;
75342;SDS011;63936;51.006;13.764;2023-10-31T05:38:02;6;;;2;;
75342;SDS011;63936;51.006;13.764;2023-10-31T05:40:02;6;;;2;;
75342;SDS011;63936;51.006;13.764;2023-10-31T05:42:02;5;;;2;;
75342;SDS011;63936;51.006;13.764;2023-10-31T05:44:02;5;;;2;;
75342;SDS011;63936;51.006;13.764;2023-10-31T05:46:02;5;;;2;;
75342;SDS011;63936;51.006;13.764;2023-10-31T05:48:02;5;;;2;;
75342;SDS011;63936;51.006;13.764;2023-10-31T05:50:03;5;;;2;;
75342;SDS011;63936;51.006;13.764;2023-10-31T05:52:02;5;;;2;;
75342;SDS011;63936;51.006;13.764;2023-10-31T05:54:02;4;;;2;;
75342;SDS011;63936;51.006;13.764;2023-10-31T05:56:02;5;;;2;;
75342;SDS011;63936;51.006;13.764;2023-10-31T05:58:02;5;;;2;;
75342;SDS011;63936;51.006;13.764;2023-10-31T06:00:03;5;;;2;;
75342;SDS011;63936;51.006;13.764;2023-10-31T06:02:02;4;;;2;;
75342;SDS011;63936;51.006;13.764;2023-10-31T06:04:02;5;;;2;;
75342;SDS011;63936;51.006;13.764;2023-10-31T06:06:02;5;;;2;;
75342;SDS011;63936;51.006;13.764;2023-10-31T06:08:01;4;;;2;;
75342;SDS011;63936;51.006;13.764;2023-10-31T06:10:03;5;;;2;;
75342;SDS011;63936;51.006;13.764;2023-10-31T06:12:02;5;;;2;;
75342;SDS011;63936;51.006;13.764;2023-10-31T06:14:02;4;;;1;;
75342;SDS011;63936;51.006;13.764;2023-10-31T06:16:02;4;;;1;;
75342;SDS011;63936;51.006;13.764;2023-10-31T06:18:02;4;;;1;;
75342;SDS011;63936;51.006;13.764;2023-10-31T06:20:03;4;;;2;;
75342;SDS011;63936;51.006;13.764;2023-10-31T06:22:02;5;;;2;;
75342;SDS011;63936;51.006;13.764;2023-10-31T06:24:01;5;;;2;;
75342;SDS011;63936;51.006;13.764;2023-10-31T06:26:02;4;;;1;;
75342;SDS011;63936;51.006;13.764;2023-10-31T06:28:02;4;;;1;;
75342;SDS011;63936;51.006;13.764;2023-10-31T06:30:04;5;;;1;;
75342;SDS011;63936;51.006;13.764;2023-10-31T06:32:02;5;;;1;;
75342;SDS011;63936;51.006;13.764;2023-10-31T06:34:02;4;;;1;;
75342;SDS011;63936;51.006;13.764;2023-10-31T06:36:02;4;;;1;;
75342;SDS011;63936;51.006;13.764;2023-10-31T06:38:02;4;;;1;;
75342;SDS011;63936;51.006;13.764;2023-10-31T06:40:03;4;;;1;;
75342;SDS011;63936;51.006;13.764;2023-10-31T06:42:02;4;;;1;;
75342;SDS011;63936;51.006;13.764;2023-10-31T06:44:02;4;;;1;;
75342;SDS011;63936;51.006;13.764;2023-10-31T06:46:02;4;;;1;;
75342;SDS011;63936;51.006;13.764;2023-10-31T06:48:02;4;;;1;;
75342;SDS011;63936;51.006;13.764;2023-10-31T06:50:03;4;;;1;;
75342;SDS011;63936;51.006;13.764;2023-10-31T06:52:01;4;;;1;;
75342;SDS011;63936;51.006;13.764;2023-10-31T06:54:02;4;;;1;;
75342;SDS011;63936;51.006;13.764;2023-10-31T06:56:02;5;;;1;;
75342;SDS011;63936;51.006;13.764;2023-10-31T06:58:01;4;;;1;;
75342;SDS011;63936;51.006;13.764;2023-10-31T07:00:02;4;;;1;;
75342;SDS011;63936;51.006;13.764;2023-10-31T07:02:02;4;;;1;;
75342;SDS011;63936;51.006;13.764;2023-10-31T07:04:02;4;;;1;;
75342;SDS011;63936;51.006;13.764;2023-10-31T07:06:02;5;;;2;;
75342;SDS011;63936;51.006;13.764;2023-10-31T07:08:01;5;;;2;;
75342;SDS011;63936;51.006;13.764;2023-10-31T07:10:04;4;;;1;;
75342;SDS011;63936;51.006;13.764;2023-10-31T07:12:02;4;;;1;;
75342;SDS011;63936;51.006;13.764;2023-10-31T07:14:02;4;;;1;;
75342;SDS011;63936;51.006;13.764;2023-10-31T07:16:01;4;;;1;;
75342;SDS011;63936;51.006;13.764;2023-10-31T07:18:02;4;;;1;;
75342;SDS011;63936;51.006;13.764;2023-10-31T07:20:03;4;;;1;;
75342;SDS011;63936;51.006;13.764;2023-10-31T07:22:02;5;;;1;;
75342;SDS011;63936;51.006;13.764;2023-10-31T07:24:01;4;;;1;;
75342;SDS011;63936;51.006;13.764;2023-10-31T07:26:01;4;;;1;;
75342;SDS011;63936;51.006;13.764;2023-10-31T07:28:02;3;;;1;;
75342;SDS011;63936;51.006;13.764;2023-10-31T07:30:03;4;;;1;;
75342;SDS011;63936;51.006;13.764;2023-10-31T07:32:02;4;;;1;;
75342;SDS011;63936;51.006;13.764;2023-10-31T07:34:02;5;;;1;;
75342;SDS011;63936;51.006;13.764;2023-10-31T07:36:01;4;;;1;;
75342;SDS011;63936;51.006;13.764;2023-10-31T07:38:01;4;;;1;;
75342;SDS011;63936;51.006;13.764;2023-10-31T07:40:03;4;;;1;;
75342;SDS011;63936;51.006;13.764;2023-10-31T07:42:01;3;;;1;;
75342;SDS011;63936;51.006;13.764;2023-10-31T07:44:01;3;;;1;;
75342;SDS011;63936;51.006;13.764;2023-10-31T07:46:01;4;;;1;;
75342;SDS011;63936;51.006;13.764;2023-10-31T07:48:02;4;;;1;;
75342;SDS011;63936;51.006;13.764;2023-10-31T07:50:05;4;;;1;;
75342;SDS011;63936;51.006;13.764;2023-10-31T07:52:02;4;;;1;;
75342;SDS011;63936;51.006;13.764;2023-10-31T07:54:02;4;;;1;;
75342;SDS011;63936;51.006;13.764;2023-10-31T07:56:01;4;;;1;;
75342;SDS011;63936;51.006;13.764;2023-10-31T07:58:02;4;;;1;;
75342;SDS011;63936;51.006;13.764;2023-10-31T08:00:02;3;;;1;;
75342;SDS011;63936;51.006;13.764;2023-10-31T08:02:01;4;;;1;;
75342;SDS011;63936;51.006;13.764;2023-10-31T08:04:01;4;;;1;;
75342;SDS011;63936;51.006;13.764;2023-10-31T08:06:01;6;;;3;;
75342;SDS011;63936;51.006;13.764;2023-10-31T08:08:01;5;;;2;;
75342;SDS011;63936;51.006;13.764;2023-10-31T08:10:02;5;;;1;;
75342;SDS011;63936;51.006;13.764;2023-10-31T08:12:02;5;;;1;;
75342;SDS011;63936;51.006;13.764;2023-10-31T08:14:02;5;;;1;;
75342;SDS011;63936;51.006;13.764;2023-10-31T08:16:01;5;;;1;;
75342;SDS011;63936;51.006;13.764;2023-10-31T08:18:01;3;;;1;;
75342;SDS011;63936;51.006;13.764;2023-10-31T08:20:02;3;;;1;;
75342;SDS011;63936;51.006;13.764;2023-10-31T08:22:02;6;;;1;;
75342;SDS011;63936;51.006;13.764;2023-10-31T08:24:01;5;;;1;;
75342;SDS011;63936;51.006;13.764;2023-10-31T08:26:01;3;;;1;;
75342;SDS011;63936;51.006;13.764;2023-10-31T08:28:01;5;;;1;;
75342;SDS011;63936;51.006;13.764;2023-10-31T08:30:04;4;;;1;;
75342;SDS011;63936;51.006;13.764;2023-10-31T08:32:02;4;;;1;;
75342;SDS011;63936;51.006;13.764;2023-10-31T08:34:02;4;;;1;;
75342;SDS011;63936;51.006;13.764;2023-10-31T08:36:01;4;;;1;;
75342;SDS011;63936;51.006;13.764;2023-10-31T08:38:01;4;;;1;;
75342;SDS011;63936;51.006;13.764;2023-10-31T08:40:02;4;;;1;;
75342;SDS011;63936;51.006;13.764;2023-10-31T08:42:02;4;;;1;;
75342;SDS011;63936;51.006;13.764;2023-10-31T08:44:01;4;;;1;;
75342;SDS011;63936;51.006;13.764;2023-10-31T08:46:01;4;;;1;;
75342;SDS011;63936;51.006;13.764;2023-10-31T08:48:02;4;;;1;;
75342;SDS011;63936;51.006;13.764;2023-10-31T08:50:04;4;;;1;;
75342;SDS011;63936;51.006;13.764;2023-10-31T08:52:01;4;;;1;;
75342;SDS011;63936;51.006;13.764;2023-10-31T08:54:02;5;;;1;;
75342;SDS011;63936;51.006;13.764;2023-10-31T08:56:01;4;;;1;;
75342;SDS011;63936;51.006;13.764;2023-10-31T08:58:02;4;;;1;;
75342;SDS011;63936;51.006;13.764;2023-10-31T09:00:02;4;;;1;;
75342;SDS011;63936;51.006;13.764;2023-10-31T09:02:01;4;;;1;;
75342;SDS011;63936;51.006;13.764;2023-10-31T09:04:01;4;;;1;;
75342;SDS011;63936;51.006;13.764;2023-10-31T09:06:02;4;;;1;;
75342;SDS011;63936;51.006;13.764;2023-10-31T09:08:02;4;;;1;;
75342;SDS011;63936;51.006;13.764;2023-10-31T09:10:02;4;;;2;;
75342;SDS011;63936;51.006;13.764;2023-10-31T09:12:01;5;;;2;;
75342;SDS011;63936;51.006;13.764;2023-10-31T09:14:01;4;;;1;;
75342;SDS011;63936;51.006;13.764;2023-10-31T09:16:01;4;;;1;;
75342;SDS011;63936;51.006;13.764;2023-10-31T09:18:01;4;;;1;;
75342;SDS011;63936;51.006;13.764;2023-10-31T09:20:02;4;;;1;;
75342;SDS011;63936;51.006;13.764;2023-10-31T09:22:01;4;;;1;;
75342;SDS011;63936;51.006;13.764;2023-10-31T09:24:02;4;;;1;;
75342;SDS011;63936;51.006;13.764;2023-10-31T09:26:01;3;;;1;;
75342;SDS011;63936;51.006;13.764;2023-10-31T09:28:01;3;;;1;;
75342;SDS011;63936;51.006;13.764;2023-10-31T09:30:02;3;;;1;;
75342;SDS011;63936;51.006;13.764;2023-10-31T09:32:01;4;;;1;;
75342;SDS011;63936;51.006;13.764;2023-10-31T09:34:01;3;;;1;;
75342;SDS011;63936;51.006;13.764;2023-10-31T09:36:02;3;;;1;;
75342;SDS011;63936;51.006;13.764;2023-10-31T09:38:02;3;;;1;;
75342;SDS011;63936;51.006;13.764;2023-10-31T09:40:03;3;;;1;;
75342;SDS011;63936;51.006;13.764;2023-10-31T09:42:01;3;;;1;;
75342;SDS011;63936;51.006;13.764;2023-10-31T09:44:01;3;;;1;;
75342;SDS011;63936;51.006;13.764;2023-10-31T09:46:02;3;;;1;;
75342;SDS011;63936;51.006;13.764;2023-10-31T09:48:02;3;;;1;;
75342;SDS011;63936;51.006;13.764;2023-10-31T09:50:02;3;;;1;;
75342;SDS011;63936;51.006;13.764;2023-10-31T09:52:01;5;;;1;;
75342;SDS011;63936;51.006;13.764;2023-10-31T09:54:01;4;;;1;;
75342;SDS011;63936;51.006;13.764;2023-10-31T09:56:02;3;;;1;;
75342;SDS011;63936;51.006;13.764;2023-10-31T09:58:02;4;;;1;;
75342;SDS011;63936;51.006;13.764;2023-10-31T10:00:02;4;;;1;;
75342;SDS011;63936;51.006;13.764;2023-10-31T10:02:01;3;;;1;;
75342;SDS011;63936;51.006;13.764;2023-10-31T10:04:01;3;;;1;;
75342;SDS011;63936;51.006;13.764;2023-10-31T10:06:02;3;;;1;;
75342;SDS011;63936;51.006;13.764;2023-10-31T10:08:03;3;;;1;;
75342;SDS011;63936;51.006;13.764;2023-10-31T10:10:02;3;;;1;;
75342;SDS011;63936;51.006;13.764;2023-10-31T10:12:02;3;;;1;;
75342;SDS011;63936;51.006;13.764;2023-10-31T10:14:02;3;;;1;;
75342;SDS011;63936;51.006;13.764;2023-10-31T10:16:01;3;;;1;;
75342;SDS011;63936;51.006;13.764;2023-10-31T10:18:01;3;;;1;;
75342;SDS011;63936;51.006;13.764;2023-10-31T10:20:05;3;;;1;;
75342;SDS011;63936;51.006;13.764;2023-10-31T10:22:02;3;;;1;;
75342;SDS011;63936;51.006;13.764;2023-10-31T10:24:02;3;;;1;;
75342;SDS011;63936;51.006;13.764;2023-10-31T10:26:01;3;;;1;;
75342;SDS011;63936;51.006;13.764;2023-10-31T10:28:02;3;;;1;;
75342;SDS011;63936;51.006;13.764;2023-10-31T10:30:02;3;;;1;;
75342;SDS011;63936;51.006;13.764;2023-10-31T10:32:01;3;;;1;;
75342;SDS011;63936;51.006;13.764;2023-10-31T10:34:01;3;;;1;;
75342;SDS011;63936;51.006;13.764;2023-10-31T10:36:02;3;;;1;;
75342;SDS011;63936;51.006;13.764;2023-10-31T10:38:01;3;;;1;;
75342;SDS011;63936;51.006;13.764;2023-10-31T10:40:02;3;;;1;;
75342;SDS011;63936;51.006;13.764;2023-10-31T10:42:02;3;;;1;;
75342;SDS011;63936;51.006;13.764;2023-10-31T10:44:04;3;;;1;;
75342;SDS011;63936;51.006;13.764;2023-10-31T10:46:01;4;;;1;;
75342;SDS011;63936;51.006;13.764;2023-10-31T10:48:01;4;;;1;;
75342;SDS011;63936;51.006;13.764;2023-10-31T10:50:02;3;;;1;;
75342;SDS011;63936;51.006;13.764;2023-10-31T10:52:01;3;;;1;;
75342;SDS011;63936;51.006;13.764;2023-10-31T10:54:02;3;;;1;;
75342;SDS011;63936;51.006;13.764;2023-10-31T10:56:03;3;;;1;;
75342;SDS011;63936;51.006;13.764;2023-10-31T10:58:03;3;;;1;;
75342;SDS011;63936;51.006;13.764;2023-10-31T11:00:03;3;;;1;;
75342;SDS011;63936;51.006;13.764;2023-10-31T11:02:01;3;;;1;;
75342;SDS011;63936;51.006;13.764;2023-10-31T11:04:01;4;;;1;;
75342;SDS011;63936;51.006;13.764;2023-10-31T11:06:02;4;;;1;;
75342;SDS011;63936;51.006;13.764;2023-10-31T11:08:01;4;;;1;;
75342;SDS011;63936;51.006;13.764;2023-10-31T11:10:02;4;;;1;;
75342;SDS011;63936;51.006;13.764;2023-10-31T11:12:01;4;;;1;;
75342;SDS011;63936;51.006;13.764;2023-10-31T11:14:01;3;;;1;;
75342;SDS011;63936;51.006;13.764;2023-10-31T11:16:04;3;;;1;;
75342;SDS011;63936;51.006;13.764;2023-10-31T11:18:01;3;;;1;;
75342;SDS011;63936;51.006;13.764;2023-10-31T11:20:02;4;;;1;;
75342;SDS011;63936;51.006;13.764;2023-10-31T11:22:02;3;;;1;;
75342;SDS011;63936;51.006;13.764;2023-10-31T11:24:02;3;;;1;;
75342;SDS011;63936;51.006;13.764;2023-10-31T11:26:02;3;;;1;;
75342;SDS011;63936;51.006;13.764;2023-10-31T11:28:16;3;;;1;;
75342;SDS011;63936;51.006;13.764;2023-10-31T11:30:04;3;;;1;;
75342;SDS011;63936;51.006;13.764;2023-10-31T11:32:01;3;;;1;;
75342;SDS011;63936;51.006;13.764;2023-10-31T11:34:01;5;;;1;;
75342;SDS011;63936;51.006;13.764;2023-10-31T11:36:01;5;;;1;;
75342;SDS011;63936;51.006;13.764;2023-10-31T11:38:02;3;;;1;;
75342;SDS011;63936;51.006;13.764;2023-10-31T11:40:20;3;;;1;;
75342;SDS011;63936;51.006;13.764;2023-10-31T11:42:01;3;;;1;;
75342;SDS011;63936;51.006;13.764;2023-10-31T11:44:02;4;;;1;;
75342;SDS011;63936;51.006;13.764;2023-10-31T11:46:01;4;;;1;;
75342;SDS011;63936;51.006;13.764;2023-10-31T11:48:01;4;;;1;;
75342;SDS011;63936;51.006;13.764;2023-10-31T11:50:03;3;;;1;;
75342;SDS011;63936;51.006;13.764;2023-10-31T11:52:01;3;;;1;;
75342;SDS011;63936;51.006;13.764;2023-10-31T11:54:02;4;;;1;;
75342;SDS011;63936;51.006;13.764;2023-10-31T11:56:01;3;;;1;;
75342;SDS011;63936;51.006;13.764;2023-10-31T11:58:17;3;;;1;;
75342;SDS011;63936;51.006;13.764;2023-10-31T12:00:02;4;;;1;;
75342;SDS011;63936;51.006;13.764;2023-10-31T12:02:05;4;;;1;;
75342;SDS011;63936;51.006;13.764;2023-10-31T12:04:01;4;;;1;;
75342;SDS011;63936;51.006;13.764;2023-10-31T12:06:02;4;;;1;;
75342;SDS011;63936;51.006;13.764;2023-10-31T12:08:02;3;;;1;;
75342;SDS011;63936;51.006;13.764;2023-10-31T12:10:02;4;;;1;;
75342;SDS011;63936;51.006;13.764;2023-10-31T12:12:01;4;;;1;;
75342;SDS011;63936;51.006;13.764;2023-10-31T12:14:02;5;;;1;;
75342;SDS011;63936;51.006;13.764;2023-10-31T12:16:01;4;;;1;;
75342;SDS011;63936;51.006;13.764;2023-10-31T12:18:01;4;;;1;;
75342;SDS011;63936;51.006;13.764;2023-10-31T12:20:03;4;;;1;;
75342;SDS011;63936;51.006;13.764;2023-10-31T12:22:01;4;;;1;;
75342;SDS011;63936;51.006;13.764;2023-10-31T12:24:02;4;;;1;;
75342;SDS011;63936;51.006;13.764;2023-10-31T12:26:01;4;;;1;;
75342;SDS011;63936;51.006;13.764;2023-10-31T12:28:01;4;;;1;;
75342;SDS011;63936;51.006;13.764;2023-10-31T12:30:02;4;;;1;;
75342;SDS011;63936;51.006;13.764;2023-10-31T12:32:02;4;;;1;;
75342;SDS011;63936;51.006;13.764;2023-10-31T12:34:04;6;;;1;;
75342;SDS011;63936;51.006;13.764;2023-10-31T12:36:01;5;;;1;;
75342;SDS011;63936;51.006;13.764;2023-10-31T12:38:01;5;;;1;;
75342;SDS011;63936;51.006;13.764;2023-10-31T12:40:02;5;;;1;;
75342;SDS011;63936;51.006;13.764;2023-10-31T12:42:02;3;;;1;;
75342;SDS011;63936;51.006;13.764;2023-10-31T12:44:01;3;;;1;;
75342;SDS011;63936;51.006;13.764;2023-10-31T12:46:23;3;;;1;;
75342;SDS011;63936;51.006;13.764;2023-10-31T12:48:01;3;;;1;;
75342;SDS011;63936;51.006;13.764;2023-10-31T12:50:05;4;;;1;;
75342;SDS011;63936;51.006;13.764;2023-10-31T12:52:02;4;;;1;;